LGHI/JKH METAR and TAF weather

Enter ICAO airport designator
Station Type Date Time Source
LGHI METAR 2020/04/09 08:50 UTC NOAA

LGHI 090850Z 01014KT 9999 FEW025 13/07 Q1015


Station Type Date Time Source
LGHI Decoded METAR 2020/04/09 08:50 UTC NOAA

Chios Airport , Greece (LGHI) 38-20N 026-08E 4M
Apr 09, 2020 - 04:50 AM EDT / 2020.04.09 0850 UTC
Wind: from the N (010 degrees) at 16 MPH (14 KT):0
Visibility: greater than 7 mile(s):0
Sky conditions: mostly clear
Temperature: 55 F (13 C)
Dew Point: 44 F (7 C)
Relative Humidity: 66%
Pressure (altimeter): 29.97 in. Hg (1015 hPa)
ob: LGHI 090850Z 01014KT 9999 FEW025 13/07 Q1015
cycle: 9

Station Type Date Time Source
LGHI TAF 2012/09/21 03:06 UTC NOAA

TAF TAF LGHI 210200Z 2103/2115 VRB05KT 9999 SCT020 PROB30
TEMPO 2103/2106 7000 RA SCT018 BKN030
BECMG 2103/2105 30018KT

Example: see airport list